createdAt,value
2023-04-07T00:01:19.795Z,8.50
2023-04-07T00:03:46.679Z,8.50
2023-04-07T00:06:14.026Z,8.50
2023-04-07T00:08:41.503Z,8.44
2023-04-07T00:11:08.976Z,8.44
2023-04-07T00:13:35.571Z,8.44
2023-04-07T00:16:02.355Z,8.44
2023-04-07T00:18:29.093Z,8.44
2023-04-07T00:20:55.782Z,8.38
2023-04-07T00:23:22.411Z,8.38
2023-04-07T00:25:49.619Z,8.38
2023-04-07T00:28:16.252Z,8.38
2023-04-07T00:30:42.931Z,8.38
2023-04-07T00:33:09.938Z,8.38
2023-04-07T00:35:36.807Z,8.44
2023-04-07T00:38:03.487Z,8.38
2023-04-07T00:40:30.457Z,8.38
2023-04-07T00:42:57.428Z,8.38
2023-04-07T00:45:24.194Z,8.38
2023-04-07T00:47:51.211Z,8.38
2023-04-07T00:50:19.166Z,8.38
2023-04-07T00:52:46.117Z,8.31
2023-04-07T00:55:12.709Z,8.31
2023-04-07T00:57:41.733Z,8.31
2023-04-07T01:00:09.940Z,8.38
2023-04-07T01:02:51.091Z,8.31
2023-04-07T01:05:40.280Z,8.31
2023-04-07T01:08:28.575Z,8.31
2023-04-07T01:11:09.850Z,8.31
2023-04-07T01:13:49.356Z,8.25
2023-04-07T01:16:27.209Z,8.38
2023-04-07T01:19:03.284Z,8.31
2023-04-07T01:21:34.181Z,8.31
2023-04-07T01:24:33.524Z,8.31
2023-04-07T01:27:21.421Z,8.25
2023-04-07T01:29:53.174Z,8.25
2023-04-07T01:32:24.022Z,8.25
2023-04-07T01:34:53.042Z,8.25
2023-04-07T01:37:23.295Z,8.25
2023-04-07T01:39:49.958Z,8.31
2023-04-07T01:42:20.139Z,8.31
2023-04-07T01:44:48.996Z,8.31
2023-04-07T01:47:16.705Z,8.31
2023-04-07T01:49:45.912Z,8.38
2023-04-07T01:52:13.887Z,8.31
2023-04-07T01:54:41.224Z,8.31
2023-04-07T01:57:10.863Z,8.25
2023-04-07T01:59:37.481Z,8.31
2023-04-07T02:02:04.197Z,8.25
2023-04-07T02:04:56.997Z,8.31
2023-04-07T02:07:57.955Z,8.25
2023-04-07T02:10:27.081Z,8.31
2023-04-07T02:12:55.017Z,8.31
2023-04-07T02:15:23.744Z,8.31
2023-04-07T02:17:54.310Z,8.38
2023-04-07T02:20:22.830Z,8.38
2023-04-07T02:22:49.786Z,8.31
2023-04-07T02:25:27.352Z,8.31
2023-04-07T02:27:56.370Z,8.38
2023-04-07T02:30:23.783Z,8.31
2023-04-07T02:32:50.899Z,8.31
2023-04-07T02:35:17.667Z,8.31
2023-04-07T02:37:45.834Z,8.38
2023-04-07T02:40:13.615Z,8.31
2023-04-07T02:42:40.736Z,8.31
2023-04-07T02:45:09.190Z,8.38
2023-04-07T02:47:37.394Z,8.38
2023-04-07T02:50:06.878Z,8.38
2023-04-07T02:52:33.775Z,8.31
2023-04-07T02:55:01.039Z,8.38
2023-04-07T02:57:27.703Z,8.38
2023-04-07T02:59:56.076Z,8.38
2023-04-07T03:02:22.832Z,8.38
2023-04-07T03:04:51.863Z,8.38
2023-04-07T03:07:19.149Z,8.38
2023-04-07T03:09:45.962Z,8.38
2023-04-07T03:12:13.621Z,8.38
2023-04-07T03:14:40.253Z,8.31
2023-04-07T03:17:07.039Z,8.31
2023-04-07T03:19:33.810Z,8.31
2023-04-07T03:22:00.531Z,8.25
2023-04-07T03:24:27.205Z,8.31
2023-04-07T03:26:53.959Z,8.31
2023-04-07T03:29:20.861Z,8.31
2023-04-07T03:31:47.434Z,8.25
2023-04-07T03:34:14.074Z,8.25
2023-04-07T03:36:40.655Z,8.25
2023-04-07T03:39:07.282Z,8.31
2023-04-07T03:41:33.860Z,8.38
2023-04-07T03:44:00.548Z,8.31
2023-04-07T03:46:28.688Z,8.31
2023-04-07T03:48:55.721Z,8.38
2023-04-07T03:51:22.994Z,8.38
2023-04-07T03:53:49.621Z,8.31
2023-04-07T03:56:17.112Z,8.38
2023-04-07T03:58:44.349Z,8.38
2023-04-07T04:01:13.497Z,8.38
2023-04-07T04:03:40.596Z,8.38
2023-04-07T04:06:07.392Z,8.31
2023-04-07T04:08:34.052Z,8.31
2023-04-07T04:11:00.874Z,8.31
2023-04-07T04:13:27.484Z,8.31
2023-04-07T04:15:54.110Z,8.25
2023-04-07T04:18:20.870Z,8.31
2023-04-07T04:20:48.089Z,8.31
2023-04-07T04:23:15.433Z,8.25
2023-04-07T04:25:42.076Z,8.31
2023-04-07T04:28:08.690Z,8.31
2023-04-07T04:30:38.368Z,8.31
2023-04-07T04:33:07.155Z,8.31
2023-04-07T04:35:33.753Z,8.31
2023-04-07T04:38:00.771Z,8.31
2023-04-07T04:40:27.447Z,8.38
2023-04-07T04:42:54.010Z,8.38
2023-04-07T04:45:20.680Z,8.31
2023-04-07T04:47:47.369Z,8.38
2023-04-07T04:50:14.081Z,8.38
2023-04-07T04:52:40.953Z,8.38
2023-04-07T04:55:08.856Z,8.38
2023-04-07T04:57:36.191Z,8.31
2023-04-07T05:00:04.378Z,8.38
2023-04-07T05:02:31.343Z,8.38
2023-04-07T05:04:58.291Z,8.38
2023-04-07T05:07:25.511Z,8.38
2023-04-07T05:09:52.158Z,8.31
2023-04-07T05:12:18.759Z,8.38
2023-04-07T05:14:46.781Z,8.38
2023-04-07T05:17:13.485Z,8.38
2023-04-07T05:19:40.414Z,8.31
2023-04-07T05:22:07.020Z,8.38
2023-04-07T05:24:34.096Z,8.38
2023-04-07T05:27:01.920Z,8.38
2023-04-07T05:29:28.656Z,8.44
2023-04-07T05:31:55.639Z,8.38
2023-04-07T05:34:22.273Z,8.38
2023-04-07T05:36:49.235Z,8.31
2023-04-07T05:39:15.960Z,8.38
2023-04-07T05:41:42.613Z,8.38
2023-04-07T05:44:09.382Z,8.38
2023-04-07T05:46:35.966Z,8.38
2023-04-07T05:49:16.731Z,8.38
2023-04-07T05:51:49.183Z,8.31
2023-04-07T05:54:16.536Z,8.38
2023-04-07T05:56:43.208Z,8.38
2023-04-07T06:07:50.915Z,8.38
2023-04-07T06:47:24.665Z,8.44
2023-04-07T06:49:51.419Z,8.56
2023-04-07T06:52:17.996Z,8.56
2023-04-07T06:54:44.876Z,8.63
2023-04-07T06:57:12.230Z,8.63
2023-04-07T06:59:39.151Z,8.69
2023-04-07T07:02:07.631Z,8.69
2023-04-07T07:04:34.922Z,8.75
2023-04-07T07:07:01.622Z,8.69
2023-04-07T07:09:28.196Z,8.75
2023-04-07T07:11:54.819Z,8.88
2023-04-07T07:14:21.407Z,8.88
2023-04-07T07:16:48.012Z,8.88
2023-04-07T07:19:15.101Z,8.94
2023-04-07T07:21:41.692Z,9.00
2023-04-07T07:24:08.339Z,9.00
2023-04-07T07:26:34.985Z,9.06
2023-04-07T07:29:01.882Z,9.06
2023-04-07T07:31:28.756Z,9.13
2023-04-07T07:33:55.586Z,9.13
2023-04-07T07:36:22.238Z,9.19
2023-04-07T07:38:51.571Z,9.13
2023-04-07T07:41:18.174Z,9.19
2023-04-07T07:43:44.836Z,9.19
2023-04-07T07:46:11.470Z,9.25
2023-04-07T07:48:38.062Z,9.19
2023-04-07T07:51:04.964Z,9.19
2023-04-07T07:53:31.550Z,9.31
2023-04-07T07:55:58.152Z,9.25
2023-04-07T07:58:25.023Z,9.31
2023-04-07T08:00:51.661Z,9.38
2023-04-07T08:03:19.918Z,9.56
2023-04-07T08:05:48.808Z,9.56
2023-04-07T08:08:15.650Z,9.63
2023-04-07T08:10:42.236Z,9.69
2023-04-07T08:13:08.881Z,9.69
2023-04-07T08:15:35.921Z,9.81
2023-04-07T08:18:04.729Z,9.94
2023-04-07T08:20:31.742Z,10.00
2023-04-07T08:22:58.384Z,9.94
2023-04-07T08:25:24.950Z,10.00
2023-04-07T08:27:51.559Z,10.00
2023-04-07T08:30:18.260Z,10.00
2023-04-07T08:32:45.500Z,10.13
2023-04-07T08:35:12.350Z,10.13
2023-04-07T08:37:41.108Z,10.13
2023-04-07T08:40:08.011Z,10.19
2023-04-07T08:42:38.377Z,10.25
2023-04-07T08:45:07.566Z,10.38
2023-04-07T08:47:36.526Z,10.38
2023-04-07T08:50:09.420Z,10.44
2023-04-07T08:52:49.941Z,10.44
2023-04-07T08:55:16.723Z,10.50
2023-04-07T08:57:43.794Z,10.75
2023-04-07T09:00:11.477Z,10.75
2023-04-07T09:02:45.826Z,10.75
2023-04-07T09:05:16.660Z,10.75
2023-04-07T09:07:43.927Z,10.56
2023-04-07T09:10:10.717Z,10.69
2023-04-07T09:12:38.353Z,10.69
2023-04-07T09:15:08.756Z,10.69
2023-04-07T09:17:35.667Z,10.75
2023-04-07T09:20:03.269Z,10.69
2023-04-07T09:22:36.047Z,10.75
2023-04-07T09:25:26.200Z,10.75
2023-04-07T09:28:01.007Z,10.81
2023-04-07T09:30:29.530Z,10.94
2023-04-07T09:32:56.664Z,10.81
2023-04-07T09:35:24.645Z,10.69
2023-04-07T09:38:08.806Z,10.69
2023-04-07T09:40:37.300Z,10.56
2023-04-07T09:43:05.637Z,10.56
2023-04-07T09:45:36.281Z,10.63
2023-04-07T09:48:08.566Z,10.75
2023-04-07T09:50:41.190Z,10.69
2023-04-07T09:53:08.225Z,10.69
2023-04-07T09:55:36.313Z,10.63
2023-04-07T09:58:04.597Z,10.56
2023-04-07T10:00:31.427Z,10.69
2023-04-07T10:02:58.896Z,10.69
2023-04-07T10:05:25.934Z,10.69
2023-04-07T10:07:53.189Z,10.81
2023-04-07T10:10:19.944Z,10.81
2023-04-07T10:12:50.184Z,10.88
2023-04-07T10:15:17.396Z,10.88
2023-04-07T10:17:50.398Z,10.94
2023-04-07T10:20:22.657Z,10.88
2023-04-07T10:22:53.646Z,10.75
2023-04-07T10:25:23.913Z,10.63
2023-04-07T10:28:00.285Z,10.63
2023-04-07T10:30:34.259Z,10.63
2023-04-07T10:33:01.228Z,10.56
2023-04-07T10:35:29.805Z,10.69
2023-04-07T10:38:10.402Z,10.69
2023-04-07T10:40:38.133Z,10.69
2023-04-07T10:43:09.395Z,10.63
2023-04-07T10:45:52.284Z,10.75
2023-04-07T10:48:20.078Z,10.63
2023-04-07T10:51:12.473Z,10.69
2023-04-07T10:54:17.485Z,10.69
2023-04-07T10:57:02.759Z,10.69
2023-04-07T10:59:34.016Z,10.69
2023-04-07T11:02:29.863Z,10.69
2023-04-07T11:04:57.184Z,10.56
2023-04-07T11:07:44.896Z,10.69
2023-04-07T11:10:16.347Z,10.63
2023-04-07T11:12:43.873Z,10.63
2023-04-07T11:15:22.008Z,10.63
2023-04-07T11:18:10.526Z,10.63
2023-04-07T11:20:52.682Z,10.56
2023-04-07T11:23:21.691Z,10.44
2023-04-07T11:25:49.859Z,10.44
2023-04-07T11:28:17.380Z,10.50
2023-04-07T11:30:52.728Z,10.50
2023-04-07T11:33:22.883Z,10.50
2023-04-07T11:35:51.793Z,10.44
2023-04-07T11:38:21.096Z,10.50
2023-04-07T11:40:48.277Z,10.56
2023-04-07T11:43:18.070Z,10.56
2023-04-07T11:45:44.823Z,10.56
2023-04-07T11:48:28.626Z,10.69
2023-04-07T11:50:55.546Z,10.63
2023-04-07T11:53:29.764Z,10.69
2023-04-07T11:56:22.937Z,10.81
2023-04-07T11:58:53.452Z,10.88
2023-04-07T12:01:20.883Z,10.75
2023-04-07T12:04:02.836Z,10.88
2023-04-07T12:06:38.758Z,10.75
2023-04-07T12:09:05.949Z,10.69
2023-04-07T12:11:33.516Z,10.69
2023-04-07T12:14:00.798Z,10.69
2023-04-07T12:16:27.629Z,10.75
2023-04-07T12:18:54.577Z,10.69
2023-04-07T12:21:21.323Z,10.75
2023-04-07T12:23:48.590Z,10.75
2023-04-07T12:26:15.596Z,10.75
2023-04-07T12:28:42.159Z,10.88
2023-04-07T12:31:08.804Z,10.88
2023-04-07T12:33:35.405Z,10.94
2023-04-07T12:36:02.064Z,10.88
2023-04-07T12:38:28.809Z,11.00
2023-04-07T12:40:55.518Z,11.06
2023-04-07T12:43:22.156Z,11.19
2023-04-07T12:45:48.751Z,11.13
2023-04-07T12:48:16.679Z,11.13
2023-04-07T12:50:43.384Z,11.06
2023-04-07T12:53:10.014Z,11.13
2023-04-07T12:55:37.590Z,11.13
2023-04-07T12:58:04.724Z,11.19
2023-04-07T13:00:31.564Z,11.13
2023-04-07T13:02:58.607Z,11.25
2023-04-07T13:05:25.531Z,11.00
2023-04-07T13:07:52.138Z,11.19
2023-04-07T13:10:18.805Z,11.19
2023-04-07T13:12:45.437Z,11.19
2023-04-07T13:15:12.086Z,11.13
2023-04-07T13:17:39.011Z,11.13
2023-04-07T13:20:07.519Z,11.19
2023-04-07T13:22:35.914Z,11.13
2023-04-07T13:25:02.910Z,11.13
2023-04-07T13:27:29.496Z,11.13
2023-04-07T13:29:56.162Z,11.13
2023-04-07T13:32:23.601Z,11.06
2023-04-07T13:34:50.420Z,11.19
2023-04-07T13:37:17.238Z,11.19
2023-04-07T13:39:43.845Z,11.13
2023-04-07T13:42:12.607Z,11.13
2023-04-07T13:44:40.127Z,11.06
2023-04-07T13:47:07.467Z,11.13
2023-04-07T13:49:34.267Z,11.13
2023-04-07T13:52:01.127Z,11.00
2023-04-07T13:54:27.739Z,10.88
2023-04-07T13:56:54.343Z,10.94
2023-04-07T13:59:21.465Z,11.00
2023-04-07T14:01:48.430Z,10.94
2023-04-07T14:04:15.292Z,11.00
2023-04-07T14:06:42.647Z,10.94
2023-04-07T14:09:09.333Z,10.88
2023-04-07T14:11:36.807Z,11.00
2023-04-07T14:14:03.461Z,11.06
2023-04-07T14:16:30.551Z,11.13
2023-04-07T14:18:57.220Z,11.25
2023-04-07T14:21:24.297Z,11.13
2023-04-07T14:23:51.673Z,11.19
2023-04-07T14:26:19.546Z,11.06
2023-04-07T14:28:47.393Z,11.19
2023-04-07T14:31:15.826Z,11.13
2023-04-07T14:33:43.806Z,11.00
2023-04-07T14:36:10.606Z,11.13
2023-04-07T14:38:37.434Z,10.94
2023-04-07T14:43:33.679Z,11.25
2023-04-07T14:46:00.454Z,11.31
2023-04-07T14:48:27.257Z,11.25
2023-04-07T14:51:06.135Z,11.38
2023-04-07T14:53:35.180Z,11.38
2023-04-07T14:56:05.156Z,11.25
2023-04-07T14:58:32.442Z,11.25
2023-04-07T15:00:59.010Z,10.94
2023-04-07T15:03:25.980Z,11.00
2023-04-07T15:05:52.897Z,10.94
2023-04-07T15:08:19.463Z,10.75
2023-04-07T15:10:46.036Z,10.88
2023-04-07T15:13:12.708Z,10.75
2023-04-07T15:15:39.317Z,10.75
2023-04-07T15:18:06.053Z,10.75
2023-04-07T15:20:32.713Z,10.69
2023-04-07T15:23:02.188Z,10.69
2023-04-07T15:25:28.801Z,10.56
2023-04-07T15:27:55.515Z,10.56
2023-04-07T15:30:22.344Z,10.63
2023-04-07T15:33:00.500Z,10.44
2023-04-07T15:35:27.705Z,10.38
2023-04-07T15:37:54.345Z,10.38
2023-04-07T15:40:21.173Z,10.31
2023-04-07T15:42:47.978Z,10.44
2023-04-07T15:45:14.620Z,10.38
2023-04-07T15:47:41.315Z,10.31
2023-04-07T15:50:08.717Z,10.38
2023-04-07T15:52:35.329Z,10.38
2023-04-07T15:55:01.999Z,10.38
2023-04-07T15:57:28.591Z,10.25
2023-04-07T15:59:55.182Z,10.25
2023-04-07T16:02:21.978Z,10.31
2023-04-07T16:04:48.692Z,10.31
2023-04-07T16:07:15.269Z,10.25
2023-04-07T16:09:41.942Z,10.31
2023-04-07T16:12:08.543Z,10.31
2023-04-07T16:14:35.283Z,10.13
2023-04-07T16:17:02.350Z,10.06
2023-04-07T16:19:29.153Z,10.06
2023-04-07T16:21:55.839Z,10.06
2023-04-07T16:24:22.851Z,10.06
2023-04-07T16:26:50.471Z,10.00
2023-04-07T16:29:18.245Z,9.88
2023-04-07T16:31:45.139Z,10.06
2023-04-07T16:34:12.665Z,10.13
2023-04-07T16:36:39.416Z,10.13
2023-04-07T16:39:06.331Z,10.13
2023-04-07T16:41:33.012Z,10.06
2023-04-07T16:43:59.628Z,10.00
2023-04-07T16:46:29.964Z,10.06
2023-04-07T16:48:56.678Z,10.13
2023-04-07T16:51:24.792Z,9.94
2023-04-07T16:53:51.469Z,10.00
2023-04-07T16:56:20.227Z,9.94
2023-04-07T16:58:48.359Z,9.88
2023-04-07T17:01:15.238Z,9.94
2023-04-07T17:03:42.074Z,9.88
2023-04-07T17:06:08.974Z,9.94
2023-04-07T17:08:37.840Z,9.94
2023-04-07T17:11:09.087Z,9.88
2023-04-07T17:13:36.489Z,9.88
2023-04-07T17:16:04.610Z,9.94
2023-04-07T17:18:33.207Z,9.75
2023-04-07T17:20:59.808Z,9.81
2023-04-07T17:23:28.306Z,9.81
2023-04-07T17:25:55.103Z,9.94
2023-04-07T17:28:21.734Z,9.75
2023-04-07T17:30:48.444Z,9.75
2023-04-07T17:33:15.097Z,9.75
2023-04-07T17:35:41.694Z,9.81
2023-04-07T17:38:08.347Z,9.75
2023-04-07T17:40:34.941Z,9.75
2023-04-07T17:43:01.600Z,9.63
2023-04-07T17:45:28.249Z,9.69
2023-04-07T17:47:55.380Z,9.63
2023-04-07T17:50:22.296Z,9.69
2023-04-07T17:52:49.931Z,9.56
2023-04-07T17:55:16.606Z,9.56
2023-04-07T17:57:43.223Z,9.44
2023-04-07T18:00:10.309Z,9.44
2023-04-07T18:02:40.032Z,9.56
2023-04-07T18:05:07.245Z,9.63
2023-04-07T18:07:34.326Z,9.63
2023-04-07T18:10:02.047Z,9.69
2023-04-07T18:12:28.818Z,9.63
2023-04-07T18:14:55.588Z,9.56
2023-04-07T18:17:22.173Z,9.56
2023-04-07T18:19:48.869Z,9.63
2023-04-07T18:22:16.298Z,9.56
2023-04-07T18:24:42.900Z,9.50
2023-04-07T18:27:10.059Z,9.56
2023-04-07T18:29:36.703Z,9.50
2023-04-07T18:32:03.331Z,9.50
2023-04-07T18:34:29.965Z,9.50
2023-04-07T18:36:56.649Z,9.38
2023-04-07T18:39:23.353Z,9.44
2023-04-07T18:41:50.869Z,9.44
2023-04-07T18:44:17.483Z,9.44
2023-04-07T18:46:45.976Z,9.44
2023-04-07T18:49:13.082Z,9.38
2023-04-07T18:51:39.785Z,9.31
2023-04-07T18:54:06.460Z,9.25
2023-04-07T18:56:33.535Z,9.25
2023-04-07T18:59:00.205Z,9.31
2023-04-07T19:01:27.270Z,9.38
2023-04-07T19:03:54.230Z,9.38
2023-04-07T19:06:20.901Z,9.38
2023-04-07T19:08:47.483Z,9.31
2023-04-07T19:11:14.158Z,9.31
2023-04-07T19:13:40.937Z,9.31
2023-04-07T19:16:07.926Z,9.25
2023-04-07T19:18:34.695Z,9.25
2023-04-07T19:21:01.509Z,9.25
2023-04-07T19:23:28.362Z,9.19
2023-04-07T19:25:55.043Z,9.19
2023-04-07T19:28:22.014Z,9.19
2023-04-07T19:30:48.644Z,9.25
2023-04-07T19:33:16.072Z,9.38
2023-04-07T19:35:42.757Z,9.25
2023-04-07T19:38:09.386Z,9.31
2023-04-07T19:40:36.402Z,9.44
2023-04-07T19:43:03.190Z,9.44
2023-04-07T19:45:29.906Z,9.31
2023-04-07T19:47:56.955Z,9.44
2023-04-07T19:50:23.699Z,9.44
2023-04-07T19:52:53.160Z,9.50
2023-04-07T19:55:20.128Z,9.50
2023-04-07T19:57:47.111Z,9.50
2023-04-07T20:00:14.077Z,9.44
2023-04-07T20:02:40.923Z,9.56
2023-04-07T20:05:07.977Z,9.56
2023-04-07T20:07:34.558Z,9.50
2023-04-07T20:10:01.245Z,9.44
2023-04-07T20:12:27.957Z,9.44
2023-04-07T20:14:54.587Z,9.44
2023-04-07T20:17:21.207Z,9.38
2023-04-07T20:19:47.966Z,9.44
2023-04-07T20:22:14.610Z,9.38
2023-04-07T20:24:41.406Z,9.31
2023-04-07T20:27:08.125Z,9.31
2023-04-07T20:29:34.738Z,9.38
2023-04-07T20:32:01.418Z,9.38
2023-04-07T20:34:28.047Z,9.38
2023-04-07T20:36:54.671Z,9.44
2023-04-07T20:39:21.255Z,9.38
2023-04-07T20:41:47.986Z,9.44
2023-04-07T20:44:14.609Z,9.50
2023-04-07T20:46:42.045Z,9.50
2023-04-07T20:49:08.818Z,9.56
2023-04-07T20:51:38.499Z,9.44
2023-04-07T20:54:05.349Z,9.50
2023-04-07T20:56:32.108Z,9.56
2023-04-07T20:58:58.822Z,9.56
2023-04-07T21:01:25.525Z,9.44
2023-04-07T21:03:53.799Z,9.38
2023-04-07T21:06:20.818Z,9.50
2023-04-07T21:08:47.722Z,9.50
2023-04-07T21:11:14.567Z,9.44
2023-04-07T21:13:41.216Z,9.44
2023-04-07T21:16:07.822Z,9.44
2023-04-07T21:18:34.485Z,9.50
2023-04-07T21:21:02.176Z,9.56
2023-04-07T21:23:31.198Z,9.63
2023-04-07T21:26:02.222Z,9.50
2023-04-07T21:28:28.954Z,9.63
2023-04-07T21:30:56.674Z,9.56
2023-04-07T21:33:23.630Z,9.44
2023-04-07T21:35:51.434Z,9.38
2023-04-07T21:38:18.530Z,9.38
2023-04-07T21:40:45.161Z,9.38
2023-04-07T21:43:12.258Z,9.31
2023-04-07T21:45:39.283Z,9.38
2023-04-07T21:48:06.523Z,9.31
2023-04-07T21:50:33.936Z,9.31
2023-04-07T21:53:00.614Z,9.31
2023-04-07T21:55:27.321Z,9.25
2023-04-07T21:57:54.579Z,9.19
2023-04-07T22:00:21.898Z,9.19
2023-04-07T22:02:49.608Z,9.31
2023-04-07T22:05:16.678Z,9.25
2023-04-07T22:07:45.323Z,9.06
2023-04-07T22:10:11.994Z,9.06
2023-04-07T22:12:38.674Z,9.06
2023-04-07T22:15:06.160Z,9.00
2023-04-07T22:17:33.003Z,9.06
2023-04-07T22:19:59.628Z,9.06
2023-04-07T22:22:26.282Z,8.88
2023-04-07T22:24:52.878Z,8.94
2023-04-07T22:27:19.526Z,8.88
2023-04-07T22:29:46.126Z,8.94
2023-04-07T22:32:13.501Z,9.00
2023-04-07T22:34:40.287Z,9.06
2023-04-07T22:37:06.903Z,9.13
2023-04-07T22:39:33.543Z,9.13
2023-04-07T22:42:00.972Z,9.00
2023-04-07T22:44:27.610Z,8.81
2023-04-07T22:46:54.486Z,8.94
2023-04-07T22:49:21.286Z,8.63
2023-04-07T22:51:48.525Z,8.81
2023-04-07T22:54:18.271Z,8.81
2023-04-07T22:56:45.004Z,8.81
2023-04-07T22:59:12.068Z,8.75
2023-04-07T23:01:38.845Z,8.75
2023-04-07T23:04:05.815Z,8.63
2023-04-07T23:06:33.428Z,8.69
2023-04-07T23:09:00.466Z,8.56
2023-04-07T23:11:27.132Z,8.69
2023-04-07T23:13:53.707Z,8.81
2023-04-07T23:16:20.521Z,8.88
2023-04-07T23:18:47.372Z,8.75
2023-04-07T23:21:14.108Z,8.75
2023-04-07T23:23:40.704Z,8.56
2023-04-07T23:26:07.339Z,8.50
2023-04-07T23:28:33.937Z,8.63
2023-04-07T23:31:02.045Z,8.63
2023-04-07T23:33:31.616Z,8.63
2023-04-07T23:35:58.914Z,8.63
2023-04-07T23:38:26.622Z,8.44
2023-04-07T23:40:53.436Z,8.50
2023-04-07T23:43:20.293Z,8.56
2023-04-07T23:45:47.026Z,8.38
2023-04-07T23:48:15.508Z,8.06
2023-04-07T23:50:42.326Z,8.31
2023-04-07T23:53:09.010Z,8.44
2023-04-07T23:55:35.729Z,8.44
2023-04-07T23:58:02.334Z,8.44
